Time;durP1;ratioP1;P1;durP2;ratioP2;P2;SDS_P1;SDS_P2;PMS_P1;PMS_P2;Temp;Humidity;BMP_temperature;BMP_pressure;BME280_temperature;BME280_humidity;BME280_pressure;Samples;Min_cycle;Max_cycle;Signal;HPM_P1;HPM_P2
2022/09/17 00:00:40;;;;;;;3.97;0.67;;;10.30;99.90;;;;;;5070190;28;20704;-57
2022/09/17 00:03:08;;;;;;;2.50;0.60;;;10.30;99.90;;;;;;5069693;28;20270;-57
2022/09/17 00:05:36;;;;;;;3.80;0.70;;;;;;;;;;5069667;28;20219;-57
2022/09/17 00:08:02;;;;;;;2.70;0.70;;;;;;;;;;5069593;28;20579;-57
2022/09/17 00:10:28;;;;;;;2.17;0.60;;;;;;;;;;5069936;28;20176;-57
2022/09/17 00:12:54;;;;;;;1.13;0.60;;;9.90;99.90;;;;;;5069730;28;20191;-57
2022/09/17 00:15:20;;;;;;;3.17;0.63;;;9.80;99.90;;;;;;5069623;28;20176;-57
2022/09/17 00:17:46;;;;;;;3.00;0.60;;;9.80;99.90;;;;;;5069685;28;20251;-57
2022/09/17 00:20:12;;;;;;;4.77;0.77;;;;;;;;;;5051816;28;20249;-57
2022/09/17 00:22:38;;;;;;;1.60;0.63;;;9.80;99.90;;;;;;5069384;28;20168;-57
2022/09/17 00:25:07;;;;;;;2.17;0.60;;;9.70;99.90;;;;;;5069374;28;20200;-57
2022/09/17 00:27:33;;;;;;;2.43;0.70;;;;;;;;;;5069778;28;20221;-57
2022/09/17 00:29:59;;;;;;;1.70;0.53;;;;;;;;;;5069667;28;20259;-57
2022/09/17 00:32:26;;;;;;;3.30;0.77;;;9.40;99.90;;;;;;5069576;28;20318;-57
2022/09/17 00:34:51;;;;;;;4.03;1.00;;;9.70;99.90;;;;;;5069635;28;20176;-57
2022/09/17 00:37:18;;;;;;;2.40;0.70;;;9.20;99.90;;;;;;5069170;28;20540;-57
2022/09/17 00:39:44;;;;;;;2.50;0.60;;;9.70;99.90;;;;;;5069180;28;20177;-57
2022/09/17 00:42:12;;;;;;;3.37;0.67;;;9.60;99.90;;;;;;5070016;28;20175;-57
2022/09/17 00:44:53;;;;;;;3.77;0.73;;;9.70;99.90;;;;;;5069559;28;20200;-57
2022/09/17 00:47:36;;;;;;;1.73;0.50;;;9.70;99.90;;;;;;5069892;28;20263;-57
2022/09/17 00:50:07;;;;;;;2.80;0.70;;;9.70;99.90;;;;;;5069375;28;20635;-60
2022/09/17 00:52:45;;;;;;;4.37;0.73;;;9.70;99.90;;;;;;5069009;28;20234;-56
2022/09/17 00:55:19;;;;;;;2.43;0.93;;;9.60;99.90;;;;;;5072073;28;20722;-56
2022/09/17 00:57:45;;;;;;;3.67;0.93;;;9.60;99.90;;;;;;5073646;28;20184;-55
2022/09/17 01:00:13;;;;;;;3.43;0.70;;;9.60;99.90;;;;;;5072977;28;20192;-55
2022/09/17 01:02:40;;;;;;;1.30;0.70;;;9.60;99.90;;;;;;5072711;28;20409;-55
2022/09/17 01:05:06;;;;;;;3.60;0.60;;;9.50;99.90;;;;;;5073649;28;20200;-55
2022/09/17 01:07:32;;;;;;;3.10;0.80;;;9.30;99.90;;;;;;5073094;28;20195;-55
2022/09/17 01:10:21;;;;;;;3.57;0.60;;;8.40;99.90;;;;;;5072967;28;20172;-55
2022/09/17 01:12:57;;;;;;;1.00;0.50;;;9.20;99.90;;;;;;5055293;28;20258;-55
2022/09/17 01:15:41;;;;;;;8.03;0.80;;;9.10;99.90;;;;;;5072927;28;20176;-55
2022/09/17 01:18:20;;;;;;;7.40;0.87;;;9.00;99.90;;;;;;5072783;28;20173;-55
2022/09/17 01:21:04;;;;;;;1.93;0.70;;;8.90;99.90;;;;;;5073002;28;20226;-55
2022/09/17 01:23:58;;;;;;;6.03;0.80;;;8.80;99.90;;;;;;5054958;28;20172;-55
2022/09/17 01:26:42;;;;;;;2.27;0.70;;;9.00;99.90;;;;;;5072878;28;20666;-55
2022/09/17 01:29:28;;;;;;;4.67;0.90;;;8.90;99.90;;;;;;5072561;28;20643;-55
2022/09/17 01:32:16;;;;;;;5.50;0.90;;;8.90;99.90;;;;;;5072842;28;20238;-55
2022/09/17 01:35:05;;;;;;;2.53;0.60;;;8.90;99.90;;;;;;5072318;28;20181;-55
2022/09/17 01:37:47;;;;;;;8.00;1.17;;;8.90;99.90;;;;;;5072711;28;20221;-56
2022/09/17 01:40:37;;;;;;;3.20;0.97;;;8.80;99.90;;;;;;5069516;28;20307;-55
2022/09/17 01:43:13;;;;;;;10.53;0.97;;;8.80;99.90;;;;;;5072460;28;20169;-56
2022/09/17 01:45:55;;;;;;;7.43;0.80;;;8.80;99.90;;;;;;5072763;28;20713;-56
2022/09/17 01:48:29;;;;;;;10.13;0.97;;;8.80;99.90;;;;;;5072753;28;20195;-57
2022/09/17 01:51:10;;;;;;;4.10;0.83;;;8.90;99.90;;;;;;5054367;28;20283;-55
2022/09/17 01:53:42;;;;;;;5.77;0.90;;;8.80;99.90;;;;;;5072084;28;20187;-56
2022/09/17 01:56:13;;;;;;;1.73;0.60;;;8.80;99.90;;;;;;5072150;28;20256;-56
2022/09/17 01:58:45;;;;;;;6.57;0.57;;;8.80;99.90;;;;;;5072066;28;20694;-55
2022/09/17 02:01:12;;;;;;;3.60;0.63;;;8.80;99.90;;;;;;5072284;28;20183;-56
2022/09/17 02:04:10;;;;;;;1.03;0.57;;;8.80;99.90;;;;;;5071623;28;20713;-56
2022/09/17 02:06:39;;;;;;;5.80;0.80;;;8.90;99.90;;;;;;5064174;28;20258;-56
2022/09/17 02:09:15;;;;;;;3.60;0.50;;;9.00;99.90;;;;;;5071898;28;20172;-55
2022/09/17 02:11:45;;;;;;;5.37;0.50;;;9.10;99.90;;;;;;5071651;28;20677;-55
2022/09/17 02:14:38;;;;;;;0.87;0.43;;;9.20;99.90;;;;;;5072114;28;20607;-55
2022/09/17 02:17:21;;;;;;;5.37;0.53;;;9.40;99.90;;;;;;5071340;28;20631;-55
2022/09/17 02:19:47;;;;;;;7.40;3.20;;;9.40;99.90;;;;;;5071383;28;20186;-54
2022/09/17 02:22:21;;;;;;;22.60;2.50;;;9.40;99.90;;;;;;5072091;28;20211;-55
2022/09/17 02:25:08;;;;;;;56.73;3.83;;;9.30;99.90;;;;;;5070855;28;20208;-55
2022/09/17 02:28:01;;;;;;;18.10;3.13;;;8.90;99.90;;;;;;5071915;28;20195;-55
2022/09/17 02:30:27;;;;;;;28.90;3.93;;;8.70;99.90;;;;;;5060873;28;20200;-55
2022/09/17 02:32:54;;;;;;;19.00;1.93;;;8.60;99.90;;;;;;5071368;28;20615;-55
2022/09/17 02:35:19;;;;;;;15.00;1.70;;;8.60;99.90;;;;;;5071502;28;20172;-55
2022/09/17 02:37:45;;;;;;;12.37;1.70;;;8.60;99.90;;;;;;5070998;28;20345;-55
2022/09/17 02:40:14;;;;;;;20.37;1.50;;;8.60;99.90;;;;;;5071316;28;20225;-55
2022/09/17 02:43:00;;;;;;;8.93;1.37;;;8.70;99.90;;;;;;5071618;28;20173;-55
2022/09/17 02:45:47;;;;;;;12.07;2.37;;;8.50;99.90;;;;;;5071065;28;20345;-55
2022/09/17 02:48:35;;;;;;;22.77;1.97;;;8.60;99.90;;;;;;5071451;28;20176;-55
2022/09/17 02:51:03;;;;;;;11.07;1.50;;;8.60;99.90;;;;;;5060765;28;20259;-56
2022/09/17 02:53:50;;;;;;;12.10;1.20;;;8.50;99.90;;;;;;5071346;28;20181;-55
2022/09/17 02:56:34;;;;;;;8.60;1.10;;;8.50;99.90;;;;;;5071496;28;20186;-55
2022/09/17 02:59:20;;;;;;;6.53;1.10;;;8.50;99.90;;;;;;5071139;28;20635;-55
2022/09/17 03:02:06;;;;;;;2.77;0.70;;;8.50;99.90;;;;;;5071214;28;20184;-56
2022/09/17 03:04:32;;;;;;;10.13;0.93;;;8.50;99.90;;;;;;5059890;28;20216;-56
2022/09/17 03:07:04;;;;;;;2.20;0.90;;;8.50;99.90;;;;;;5071161;28;20176;-55
2022/09/17 03:09:30;;;;;;;7.00;0.63;;;8.40;99.90;;;;;;5070668;28;20173;-55
2022/09/17 03:11:56;;;;;;;2.57;0.80;;;8.30;99.90;;;;;;5071230;28;20180;-55
2022/09/17 03:14:21;;;;;;;2.47;0.90;;;8.30;99.90;;;;;;5070994;28;20215;-56
2022/09/17 03:16:47;;;;;;;8.03;0.73;;;8.20;99.90;;;;;;5070658;28;20201;-55
2022/09/17 03:19:12;;;;;;;5.73;0.90;;;8.10;99.90;;;;;;5069997;28;20590;-55
2022/09/17 03:21:38;;;;;;;8.60;0.80;;;8.10;99.90;;;;;;5069607;28;20247;-54
2022/09/17 03:24:04;;;;;;;10.23;1.20;;;8.10;99.90;;;;;;5069851;28;20178;-56
2022/09/17 03:26:29;;;;;;;2.40;0.80;;;8.10;99.90;;;;;;5051838;28;20740;-56
2022/09/17 03:28:55;;;;;;;2.40;0.70;;;8.10;99.90;;;;;;5070517;28;20273;-56
2022/09/17 03:31:20;;;;;;;2.37;0.70;;;8.10;99.90;;;;;;5070194;28;20704;-57
2022/09/17 03:33:46;;;;;;;4.53;0.60;;;8.10;99.90;;;;;;5070138;28;20177;-54
2022/09/17 03:36:12;;;;;;;2.00;0.43;;;8.10;99.90;;;;;;5070213;28;20247;-54
2022/09/17 03:38:37;;;;;;;4.33;0.50;;;8.10;99.90;;;;;;5069750;28;20173;-54
2022/09/17 03:41:06;;;;;;;2.30;0.60;;;8.00;99.90;;;;;;5069533;28;20765;-54
2022/09/17 03:43:32;;;;;;;9.07;0.50;;;8.00;99.90;;;;;;5070052;28;20231;-54
2022/09/17 03:45:59;;;;;;;4.10;0.60;;;7.90;99.90;;;;;;5070345;28;20216;-54
2022/09/17 03:48:24;;;;;;;3.93;0.63;;;7.80;99.90;;;;;;5070142;28;20700;-54
2022/09/17 03:50:50;;;;;;;2.47;0.73;;;7.90;99.90;;;;;;5070539;28;20200;-57
2022/09/17 03:53:16;;;;;;;3.60;0.53;;;7.80;99.90;;;;;;5070084;28;20255;-54
2022/09/17 03:55:42;;;;;;;2.97;0.50;;;7.80;99.90;;;;;;5070290;28;20176;-54
2022/09/17 03:58:08;;;;;;;2.90;0.73;;;7.80;99.90;;;;;;5070078;28;20674;-55
2022/09/17 04:00:35;;;;;;;2.57;0.60;;;7.80;99.90;;;;;;5069951;28;20333;-54
2022/09/17 04:03:05;;;;;;;2.60;0.60;;;7.80;99.90;;;;;;5069698;28;20216;-54
2022/09/17 04:05:30;;;;;;;1.13;0.60;;;7.90;99.90;;;;;;5070078;28;20227;-54
2022/09/17 04:07:56;;;;;;;0.93;0.60;;;8.30;99.90;;;;;;5070010;28;20176;-54
2022/09/17 04:10:22;;;;;;;1.37;0.50;;;7.90;99.90;;;;;;5069766;28;20190;-54
2022/09/17 04:12:48;;;;;;;3.87;0.70;;;7.90;99.90;;;;;;5069997;28;20173;-54
2022/09/17 04:15:14;;;;;;;6.27;0.70;;;6.90;99.90;;;;;;5051676;28;20243;-55
2022/09/17 04:17:39;;;;;;;2.83;0.60;;;7.80;99.90;;;;;;5069831;28;20172;-54
2022/09/17 04:20:06;;;;;;;2.50;0.70;;;7.70;99.90;;;;;;5069473;28;20551;-55
2022/09/17 04:22:31;;;;;;;6.13;0.60;;;7.80;99.90;;;;;;5069457;28;20222;-56
2022/09/17 04:24:57;;;;;;;1.40;0.70;;;7.80;99.90;;;;;;5069715;28;20236;-55
2022/09/17 04:27:23;;;;;;;2.50;0.80;;;7.80;99.90;;;;;;5070247;28;20176;-55
2022/09/17 04:29:48;;;;;;;4.43;0.80;;;7.80;99.90;;;;;;5071541;28;20184;-56
2022/09/17 04:32:14;;;;;;;3.27;0.80;;;7.80;99.90;;;;;;5073614;28;20225;-55
2022/09/17 04:34:40;;;;;;;4.93;0.80;;;8.20;99.90;;;;;;5073806;28;20602;-56
2022/09/17 04:37:06;;;;;;;1.53;0.70;;;7.70;99.90;;;;;;5074057;28;20187;-55
2022/09/17 04:39:32;;;;;;;2.43;0.90;;;7.60;99.90;;;;;;5073613;28;20658;-55
2022/09/17 04:41:57;;;;;;;7.47;1.00;;;7.70;99.90;;;;;;5074128;28;20172;-55
2022/09/17 04:44:23;;;;;;;1.40;0.83;;;;;;;;;;5073853;28;20522;-56
2022/09/17 04:46:49;;;;;;;2.87;0.90;;;7.70;99.90;;;;;;5073586;28;20486;-55
2022/09/17 04:49:14;;;;;;;4.50;0.70;;;7.70;99.90;;;;;;5073619;28;20176;-56
2022/09/17 04:51:40;;;;;;;2.00;0.83;;;7.60;99.90;;;;;;5073704;28;20184;-55
2022/09/17 04:54:06;;;;;;;0.97;0.70;;;7.70;99.90;;;;;;5073423;28;20725;-55
2022/09/17 04:56:31;;;;;;;4.80;1.10;;;7.70;99.90;;;;;;5073690;28;20172;-55
2022/09/17 04:58:57;;;;;;;2.33;1.00;;;7.70;99.90;;;;;;5073493;28;20229;-55
2022/09/17 05:01:23;;;;;;;1.67;0.80;;;7.80;99.90;;;;;;5073499;28;20206;-55
2022/09/17 05:03:49;;;;;;;4.50;1.10;;;7.70;99.90;;;;;;5072929;28;20208;-55
2022/09/17 05:06:14;;;;;;;4.80;0.93;;;7.70;99.90;;;;;;5073664;28;20212;-55
2022/09/17 05:08:40;;;;;;;3.80;0.97;;;7.60;99.90;;;;;;5073015;28;20172;-56
2022/09/17 05:11:05;;;;;;;3.57;1.00;;;7.60;99.90;;;;;;5073492;28;20172;-55
2022/09/17 05:13:31;;;;;;;5.93;0.90;;;7.40;99.90;;;;;;5073193;28;20191;-55
2022/09/17 05:15:57;;;;;;;1.67;0.67;;;8.70;99.90;;;;;;5073325;28;20187;-55
2022/09/17 05:18:23;;;;;;;4.00;1.00;;;7.50;99.90;;;;;;5073102;28;20184;-55
2022/09/17 05:20:48;;;;;;;3.47;0.93;;;7.50;99.90;;;;;;5073150;28;20204;-55
2022/09/17 05:23:14;;;;;;;1.93;0.87;;;7.50;99.90;;;;;;5073120;28;20185;-55
2022/09/17 05:25:40;;;;;;;1.70;0.90;;;7.40;99.90;;;;;;5073140;28;20208;-55
2022/09/17 05:28:06;;;;;;;3.33;0.87;;;7.40;99.90;;;;;;5072692;28;20202;-55
2022/09/17 05:30:32;;;;;;;4.10;1.00;;;7.40;99.90;;;;;;5073437;28;20180;-55
2022/09/17 05:32:59;;;;;;;3.90;0.93;;;7.20;99.90;;;;;;5072417;28;20184;-55
2022/09/17 05:35:25;;;;;;;4.60;1.07;;;7.20;99.90;;;;;;5073000;28;20176;-55
2022/09/17 05:37:51;;;;;;;6.40;0.97;;;;;;;;;;5072809;28;20237;-55
2022/09/17 05:40:17;;;;;;;1.97;1.10;;;7.10;99.90;;;;;;5072176;28;20183;-55
2022/09/17 05:42:43;;;;;;;9.00;0.93;;;;;;;;;;5072939;28;20173;-58
2022/09/17 05:45:09;;;;;;;3.70;1.07;;;7.20;99.90;;;;;;5071416;28;20636;-55
2022/09/17 05:47:34;;;;;;;4.30;0.97;;;7.40;99.90;;;;;;5072855;28;20676;-55
2022/09/17 05:50:00;;;;;;;2.10;0.90;;;7.30;99.90;;;;;;5072069;28;20192;-56
2022/09/17 05:52:27;;;;;;;2.00;1.00;;;7.40;99.90;;;;;;5071715;28;20176;-55
2022/09/17 05:54:52;;;;;;;4.87;1.13;;;7.30;99.90;;;;;;5071652;28;20238;-55
2022/09/17 05:57:19;;;;;;;4.73;0.93;;;7.20;99.90;;;;;;5072000;28;20592;-55
2022/09/17 05:59:44;;;;;;;3.10;1.00;;;7.20;99.90;;;;;;5072181;28;20267;-55
2022/09/17 06:02:13;;;;;;;5.87;0.90;;;7.20;99.90;;;;;;5072354;28;20279;-55
2022/09/17 06:04:39;;;;;;;1.97;0.90;;;7.30;99.90;;;;;;5054141;28;20251;-55
2022/09/17 06:07:07;;;;;;;4.93;0.80;;;7.20;99.90;;;;;;5072087;28;20219;-55
2022/09/17 06:09:36;;;;;;;5.20;1.00;;;7.30;99.90;;;;;;5071977;28;20203;-55
2022/09/17 06:12:02;;;;;;;5.77;0.93;;;7.30;99.90;;;;;;5072182;28;20242;-56
2022/09/17 06:14:28;;;;;;;3.40;0.80;;;7.40;99.90;;;;;;5071784;28;20255;-56
2022/09/17 06:16:55;;;;;;;3.63;1.00;;;7.50;99.90;;;;;;5072064;28;20322;-55
2022/09/17 06:19:20;;;;;;;4.17;0.90;;;7.50;99.90;;;;;;5071442;28;20234;-56
2022/09/17 06:21:46;;;;;;;4.80;0.90;;;7.50;99.90;;;;;;5072353;28;20619;-56
2022/09/17 06:24:12;;;;;;;1.90;0.70;;;7.40;99.90;;;;;;5071504;28;20173;-56
2022/09/17 06:26:38;;;;;;;3.73;1.00;;;7.30;99.90;;;;;;5070937;28;20606;-57
2022/09/17 06:29:03;;;;;;;2.43;0.90;;;7.20;99.90;;;;;;5053666;28;20694;-56
2022/09/17 06:31:29;;;;;;;5.73;0.80;;;7.30;99.90;;;;;;5071404;28;20259;-56
2022/09/17 06:33:56;;;;;;;6.67;1.00;;;7.50;99.90;;;;;;5071577;28;20183;-56
2022/09/17 06:36:21;;;;;;;4.23;1.17;;;7.40;99.90;;;;;;5071624;28;20255;-56
2022/09/17 06:38:47;;;;;;;5.47;1.10;;;7.40;99.90;;;;;;5071660;28;20700;-56
2022/09/17 06:41:13;;;;;;;4.97;1.30;;;7.60;99.90;;;;;;5071607;28;20185;-55
2022/09/17 06:43:39;;;;;;;5.13;0.90;;;7.50;99.90;;;;;;5071129;28;20215;-58
2022/09/17 06:46:07;;;;;;;4.20;1.20;;;7.40;99.90;;;;;;5070452;28;20251;-57
2022/09/17 06:48:34;;;;;;;4.93;1.00;;;7.50;99.90;;;;;;5070337;28;20259;-57
2022/09/17 06:51:06;;;;;;;13.23;1.17;;;7.50;99.90;;;;;;5071189;28;20175;-58
2022/09/17 06:53:32;;;;;;;6.00;1.27;;;7.60;99.90;;;;;;5070701;28;20207;-57
2022/09/17 06:55:59;;;;;;;5.27;1.07;;;7.70;99.90;;;;;;5053601;28;20208;-58
2022/09/17 06:58:25;;;;;;;5.30;1.10;;;7.80;99.90;;;;;;5071186;28;20164;-58
2022/09/17 07:00:51;;;;;;;6.30;1.13;;;7.90;99.90;;;;;;5071515;28;20280;-58
2022/09/17 07:03:17;;;;;;;7.93;1.10;;;7.90;99.90;;;;;;5071135;28;20295;-58
2022/09/17 07:05:44;;;;;;;10.37;1.37;;;7.80;99.90;;;;;;5071090;28;20231;-57
2022/09/17 07:08:10;;;;;;;5.20;1.10;;;7.90;99.90;;;;;;5071272;28;20172;-58
2022/09/17 07:10:36;;;;;;;2.33;1.03;;;8.00;99.90;;;;;;5070928;28;20180;-58
2022/09/17 07:13:02;;;;;;;9.40;1.23;;;8.20;99.90;;;;;;5071175;28;20307;-59
2022/09/17 07:15:28;;;;;;;4.17;1.10;;;8.20;99.90;;;;;;5070350;28;20241;-58
2022/09/17 07:17:54;;;;;;;3.17;1.20;;;8.40;99.90;;;;;;5071097;28;20257;-58
2022/09/17 07:20:19;;;;;;;4.63;1.33;;;8.40;99.90;;;;;;5070719;28;20173;-58
2022/09/17 07:22:53;;;;;;;4.63;1.50;;;8.50;99.90;;;;;;5070347;28;20172;-58
2022/09/17 07:25:19;;;;;;;3.77;1.20;;;8.70;99.90;;;;;;5070669;28;20557;-58
2022/09/17 07:27:44;;;;;;;5.93;1.23;;;8.70;99.90;;;;;;5070615;28;20252;-58
2022/09/17 07:30:11;;;;;;;5.43;1.20;;;8.80;99.90;;;;;;5070453;28;20176;-58
2022/09/17 07:32:37;;;;;;;2.83;1.10;;;9.00;99.90;;;;;;5070383;28;20681;-57
2022/09/17 07:35:03;;;;;;;6.97;1.60;;;9.10;99.90;;;;;;5070485;28;20187;-59
2022/09/17 07:37:28;;;;;;;10.17;1.50;;;9.10;99.90;;;;;;5069925;28;20172;-59
2022/09/17 07:39:54;;;;;;;5.13;1.40;;;9.30;99.90;;;;;;5070238;28;20164;-59
2022/09/17 07:42:20;;;;;;;8.50;1.30;;;9.40;99.90;;;;;;5069598;28;20188;-59
2022/09/17 07:44:46;;;;;;;4.30;1.57;;;;;;;;;;5068576;28;20262;-59
2022/09/17 07:47:12;;;;;;;8.47;1.57;;;9.60;99.90;;;;;;5070196;28;20319;-59
2022/09/17 07:49:37;;;;;;;4.43;1.33;;;9.80;99.90;;;;;;5070478;28;20176;-59
2022/09/17 07:52:06;;;;;;;5.33;1.30;;;9.70;99.90;;;;;;5080599;28;20179;-59
2022/09/17 07:54:33;;;;;;;11.97;1.30;;;9.90;99.90;;;;;;5090812;28;20489;-58
2022/09/17 07:56:59;;;;;;;4.07;1.37;;;10.50;99.90;;;;;;5076430;28;20176;-58
2022/09/17 07:59:25;;;;;;;5.40;1.00;;;10.30;99.90;;;;;;5070040;28;20176;-57
2022/09/17 08:01:50;;;;;;;4.97;1.30;;;10.70;99.90;;;;;;5070278;28;20244;-57
2022/09/17 08:04:16;;;;;;;8.73;1.27;;;10.60;99.90;;;;;;5070202;28;20705;-57
2022/09/17 08:06:42;;;;;;;2.57;1.13;;;10.30;99.90;;;;;;5069986;28;20778;-57
2022/09/17 08:09:09;;;;;;;1.90;1.00;;;10.80;99.90;;;;;;5069854;28;20177;-56
2022/09/17 08:11:35;;;;;;;5.17;1.30;;;11.00;99.90;;;;;;5069850;28;20651;-60
2022/09/17 08:14:01;;;;;;;4.53;1.30;;;11.10;99.90;;;;;;5070434;28;20171;-59
2022/09/17 08:16:26;;;;;;;3.33;0.90;;;11.30;99.90;;;;;;5069807;28;20180;-60
2022/09/17 08:18:56;;;;;;;8.60;1.40;;;11.50;99.90;;;;;;5070018;28;20191;-60
2022/09/17 08:21:22;;;;;;;3.67;1.63;;;11.60;99.90;;;;;;5069681;28;20212;-57
2022/09/17 08:23:48;;;;;;;6.20;1.60;;;11.80;99.90;;;;;;5069450;28;20180;-55
2022/09/17 08:26:21;;;;;;;4.47;1.50;;;12.30;99.90;;;;;;5069388;28;20271;-55
2022/09/17 08:28:49;;;;;;;2.40;0.70;;;14.60;99.90;;;;;;5070160;28;20188;-55
2022/09/17 08:31:17;;;;;;;6.47;1.23;;;18.50;99.90;;;;;;5069843;28;20263;-54
2022/09/17 08:33:43;;;;;;;3.13;0.63;;;18.40;99.90;;;;;;5069893;28;20172;-54
2022/09/17 08:36:11;;;;;;;7.70;0.93;;;19.60;99.90;;;;;;5069516;28;20176;-55
2022/09/17 08:38:37;;;;;;;3.25;0.98;;;20.40;99.90;;;;;;5069169;28;20243;-53
2022/09/17 08:41:11;;;;;;;4.90;0.95;;;21.70;99.90;;;;;;5069956;28;20242;-55
2022/09/17 08:43:40;;;;;;;5.43;0.80;;;22.30;99.90;;;;;;5069370;28;20203;-55
2022/09/17 08:46:09;;;;;;;6.38;1.20;;;22.40;99.90;;;;;;5064606;28;20212;-55
2022/09/17 08:48:44;;;;;;;5.15;1.30;;;23.00;99.90;;;;;;5069073;28;20177;-56
2022/09/17 08:51:38;;;;;;;5.00;1.00;;;23.50;99.90;;;;;;5068502;28;20255;-56
2022/09/17 08:54:43;;;;;;;4.32;1.10;;;21.20;99.90;;;;;;5066038;28;20180;-56
2022/09/17 08:57:27;;;;;;;2.83;0.90;;;20.90;99.90;;;;;;5014228;28;20647;-53
2022/09/17 09:00:12;;;;;;;3.85;0.93;;;19.50;99.90;;;;;;5060607;28;20194;-53
2022/09/17 09:02:56;;;;;;;6.65;1.13;;;18.00;99.90;;;;;;5069008;28;20172;-53
2022/09/17 09:05:34;;;;;;;7.05;1.05;;;18.90;99.90;;;;;;5069463;28;20249;-53
2022/09/17 09:08:06;;;;;;;4.90;0.90;;;17.70;99.90;;;;;;5069231;28;20168;-52
2022/09/17 09:10:44;;;;;;;6.85;0.80;;;19.10;99.90;;;;;;5069793;28;20176;-51
2022/09/17 09:13:14;;;;;;;5.45;0.82;;;20.30;99.90;;;;;;5061335;28;20184;-54
2022/09/17 09:15:46;;;;;;;8.18;1.30;;;19.20;99.90;;;;;;5070836;28;20311;-52
2022/09/17 09:18:16;;;;;;;4.78;1.05;;;19.50;99.90;;;;;;5073233;28;20177;-52
2022/09/17 09:20:47;;;;;;;5.95;1.08;;;18.80;99.90;;;;;;5073309;28;20635;-52
2022/09/17 09:23:34;;;;;;;4.05;1.02;;;18.70;99.90;;;;;;5071685;28;20195;-52
2022/09/17 09:26:18;;;;;;;6.97;0.80;;;18.60;99.90;;;;;;5073134;28;20222;-53
2022/09/17 09:29:02;;;;;;;6.15;1.38;;;18.20;99.90;;;;;;5063545;28;20291;-58
2022/09/17 09:31:52;;;;;;;6.15;1.00;;;18.30;99.90;;;;;;5035077;28;20181;-53
2022/09/17 09:34:18;;;;;;;6.18;0.80;;;18.70;99.90;;;;;;5053282;28;20173;-53
2022/09/17 09:36:45;;;;;;;6.30;1.38;;;19.90;99.90;;;;;;5056572;28;20191;-53
2022/09/17 09:39:22;;;;;;;8.45;1.08;;;20.50;99.90;;;;;;5072370;28;20198;-53
2022/09/17 09:42:23;;;;;;;5.03;1.13;;;19.60;99.90;;;;;;5072373;28;20245;-53
2022/09/17 09:44:49;;;;;;;8.07;1.20;;;20.70;99.90;;;;;;5045989;28;20247;-51
2022/09/17 09:47:23;;;;;;;3.60;0.90;;;21.90;99.90;;;;;;5070663;28;20181;-53
2022/09/17 09:49:55;;;;;;;6.35;0.85;;;22.90;99.90;;;;;;5069110;28;20190;-53
2022/09/17 09:52:45;;;;;;;6.18;1.15;;;24.00;99.90;;;;;;5072390;28;20247;-53
2022/09/17 09:55:37;;;;;;;5.05;1.13;;;24.10;99.90;;;;;;5072223;28;20526;-53
2022/09/17 09:58:26;;;;;;;4.30;0.98;;;24.00;99.90;;;;;;5071124;28;20168;-53
2022/09/17 10:00:52;;;;;;;3.17;0.88;;;23.80;99.90;;;;;;5071415;28;20183;-53
2022/09/17 10:03:26;;;;;;;5.80;0.82;;;22.70;99.90;;;;;;5053488;28;20703;-53
2022/09/17 10:05:59;;;;;;;7.13;1.30;;;23.10;99.90;;;;;;5058159;28;20219;-53
2022/09/17 10:08:27;;;;;;;6.88;1.20;;;24.20;99.90;;;;;;5069739;28;20176;-53
2022/09/17 10:11:12;;;;;;;4.15;0.88;;;24.30;99.90;;;;;;5071223;28;20648;-53
2022/09/17 10:13:39;;;;;;;4.70;1.00;;;24.10;99.90;;;;;;5071958;28;20173;-53
2022/09/17 10:16:21;;;;;;;4.32;0.80;;;24.10;99.90;;;;;;5071548;28;20176;-53
2022/09/17 10:18:50;;;;;;;4.72;0.98;;;24.40;99.90;;;;;;5069446;28;20192;-53
2022/09/17 10:21:36;;;;;;;9.20;1.83;;;24.60;99.90;;;;;;5071273;28;20165;-54
2022/09/17 10:24:04;;;;;;;6.10;0.80;;;24.90;99.90;;;;;;5072263;28;20189;-53
2022/09/17 10:26:32;;;;;;;7.30;1.27;;;24.50;99.90;;;;;;5069234;28;20501;-53
2022/09/17 10:29:00;;;;;;;4.25;1.00;;;24.50;99.90;;;;;;5075216;28;20625;-53
2022/09/17 10:31:26;;;;;;;5.10;0.95;;;22.50;99.90;;;;;;5058406;28;20272;-53
2022/09/17 10:34:01;;;;;;;7.88;1.00;;;22.60;99.90;;;;;;5062850;28;20183;-53
2022/09/17 10:36:46;;;;;;;5.20;1.40;;;23.40;99.90;;;;;;5071865;28;20176;-53
2022/09/17 10:39:35;;;;;;;5.97;1.20;;;24.40;99.90;;;;;;5071605;28;20187;-53
2022/09/17 10:42:17;;;;;;;2.63;0.93;;;23.30;99.90;;;;;;5071115;28;20215;-53
2022/09/17 10:44:57;;;;;;;4.18;0.95;;;22.00;99.90;;;;;;5063096;28;20177;-53
2022/09/17 10:47:28;;;;;;;7.13;0.93;;;20.90;99.90;;;;;;5051351;28;20177;-53
2022/09/17 10:50:00;;;;;;;3.08;0.77;;;22.60;99.90;;;;;;5051325;28;20170;-52
2022/09/17 10:52:29;;;;;;;4.90;1.25;;;22.20;99.90;;;;;;5066816;28;20647;-52
2022/09/17 10:55:20;;;;;;;4.72;1.20;;;24.10;99.90;;;;;;5070714;28;20208;-53
2022/09/17 10:58:26;;;;;;;4.15;0.90;;;24.20;99.90;;;;;;5051056;28;20181;-53
2022/09/17 11:01:13;;;;;;;3.85;1.00;;;24.80;99.90;;;;;;5026230;28;20239;-53
2022/09/17 11:03:55;;;;;;;3.22;0.65;;;24.80;99.90;;;;;;5064336;28;20369;-53
2022/09/17 11:06:26;;;;;;;5.15;1.08;;;23.70;99.90;;;;;;5070911;28;20321;-53
2022/09/17 11:08:56;;;;;;;5.95;1.05;;;23.60;99.90;;;;;;5071673;28;20184;-52
2022/09/17 11:11:40;;;;;;;6.50;0.90;;;24.50;99.90;;;;;;5071005;28;20193;-53
2022/09/17 11:14:20;;;;;;;5.82;0.90;;;24.30;99.90;;;;;;5070751;28;20188;-53
2022/09/17 11:17:06;;;;;;;5.55;1.00;;;24.80;99.90;;;;;;5070614;28;20176;-53
2022/09/17 11:19:38;;;;;;;5.55;1.08;;;23.90;99.90;;;;;;5070573;28;20172;-53
2022/09/17 11:22:16;;;;;;;4.18;0.98;;;24.70;99.90;;;;;;5070131;28;20172;-52
2022/09/17 11:25:15;;;;;;;6.32;1.08;;;23.70;99.90;;;;;;5070100;28;20184;-53
2022/09/17 11:28:03;;;;;;;2.63;1.00;;;24.50;99.90;;;;;;5070336;28;20729;-54
2022/09/17 11:30:42;;;;;;;6.45;1.00;;;25.30;99.90;;;;;;5069907;28;20160;-52
2022/09/17 11:33:32;;;;;;;5.65;0.90;;;25.50;99.90;;;;;;5070456;28;20581;-54
2022/09/17 11:36:08;;;;;;;4.88;1.00;;;25.90;99.90;;;;;;5069769;28;20234;-53
2022/09/17 11:38:38;;;;;;;4.25;1.00;;;27.10;99.90;;;;;;5069325;28;20187;-53
2022/09/17 11:41:27;;;;;;;4.00;0.80;;;26.50;99.90;;;;;;5052584;28;20602;-53
2022/09/17 11:44:18;;;;;;;4.05;1.05;;;26.90;99.90;;;;;;5055000;28;20197;-55
2022/09/17 11:46:47;;;;;;;5.55;1.25;;;27.50;99.90;;;;;;5069424;28;20212;-52
2022/09/17 11:49:35;;;;;;;7.22;1.50;;;27.30;99.90;;;;;;5070403;28;20178;-53
2022/09/17 11:52:36;;;;;;;4.82;1.15;;;27.60;99.90;;;;;;5070385;28;20279;-53
2022/09/17 11:55:07;;;;;;;2.97;1.15;;;27.90;99.90;;;;;;5057059;28;20191;-53
2022/09/17 11:57:38;;;;;;;1.83;0.60;;;27.20;99.90;;;;;;5069524;28;20199;-53
2022/09/17 12:00:19;;;;;;;5.43;1.20;;;27.50;99.90;;;;;;5067525;28;20612;-53
2022/09/17 12:02:55;;;;;;;3.42;0.82;;;29.00;99.90;;;;;;5060295;28;20259;-53
2022/09/17 12:05:25;;;;;;;3.75;0.90;;;27.50;99.90;;;;;;5069985;28;20210;-53
2022/09/17 12:08:09;;;;;;;3.45;0.60;;;27.00;99.90;;;;;;5070321;28;20203;-53
2022/09/17 12:11:00;;;;;;;2.08;0.75;;;26.30;99.90;;;;;;5070031;28;20179;-53
2022/09/17 12:13:26;;;;;;;4.93;0.73;;;26.40;99.90;;;;;;5070081;28;20179;-53
2022/09/17 12:16:09;;;;;;;2.15;0.85;;;26.90;99.90;;;;;;5069703;28;20219;-53
2022/09/17 12:18:50;;;;;;;4.40;0.93;;;27.90;99.90;;;;;;5069944;28;20221;-53
2022/09/17 12:21:27;;;;;;;2.95;0.80;;;27.50;99.90;;;;;;5063551;28;20647;-53
2022/09/17 12:23:58;;;;;;;4.10;1.00;;;27.90;99.90;;;;;;5065821;28;20217;-60
2022/09/17 12:26:52;;;;;;;6.65;0.90;;;28.40;99.90;;;;;;5058973;28;20284;-60
2022/09/17 12:29:20;;;;;;;3.97;1.25;;;27.30;99.90;;;;;;5067770;28;20618;-59
2022/09/17 12:31:59;;;;;;;3.22;0.90;;;28.00;99.90;;;;;;5050797;28;20180;-66
2022/09/17 12:34:50;;;;;;;2.47;1.00;;;28.20;99.90;;;;;;5069882;28;20164;-61
2022/09/17 12:37:42;;;;;;;7.72;0.98;;;28.90;99.90;;;;;;5068763;28;20171;-60
2022/09/17 12:40:16;;;;;;;4.10;1.08;;;29.00;99.90;;;;;;5066787;28;20392;-61
2022/09/17 12:42:47;;;;;;;4.88;0.85;;;28.60;99.90;;;;;;5067491;28;20183;-64
2022/09/17 12:45:50;;;;;;;3.72;1.00;;;27.80;99.90;;;;;;5067682;28;20299;-63
2022/09/17 12:48:47;;;;;;;4.85;0.90;;;28.30;99.90;;;;;;5068077;28;20179;-64
2022/09/17 12:51:18;;;;;;;3.45;0.70;;;28.50;99.90;;;;;;5070744;28;20168;-63
2022/09/17 12:54:15;;;;;;;6.07;0.90;;;27.50;99.90;;;;;;5073515;28;20179;-63
2022/09/17 12:57:13;;;;;;;4.32;1.05;;;26.40;99.90;;;;;;5071104;28;20864;-63
2022/09/17 12:59:50;;;;;;;4.25;1.30;;;27.20;99.90;;;;;;5073697;28;20171;-63
2022/09/17 13:02:39;;;;;;;4.97;1.10;;;28.10;99.90;;;;;;5073565;28;20179;-63
2022/09/17 13:05:38;;;;;;;3.88;0.95;;;28.40;99.90;;;;;;5056157;28;20191;-63
2022/09/17 13:08:16;;;;;;;4.20;1.10;;;29.00;99.90;;;;;;5067521;28;20279;-63
2022/09/17 13:10:59;;;;;;;3.88;0.90;;;29.00;99.90;;;;;;5071164;28;20174;-64
2022/09/17 13:14:05;;;;;;;4.85;1.00;;;28.30;99.90;;;;;;5070631;28;20183;-66
2022/09/17 13:16:53;;;;;;;6.13;1.35;;;28.80;99.90;;;;;;5044295;28;20599;-71
2022/09/17 13:19:40;;;;;;;5.05;1.23;;;27.00;99.90;;;;;;5071525;28;20626;-73
2022/09/17 13:22:09;;;;;;;4.07;0.90;;;27.00;99.90;;;;;;5071915;28;20173;-62
2022/09/17 13:24:36;;;;;;;3.40;1.08;;;26.00;99.90;;;;;;5072025;28;20168;-63